Jurupa, California
Current Conditions -  °F | °C
As of 4:53 AM on Saturday 20 Dec 2014 (Local Time) from KRAL Reporting Station
Haze Haze  
Wind Chill: 46°   Ceiling: Unl
Heat Index: 46°   Visibility: 5mi
Dew Point: 43°   Wind: 3mph
Humidity: 89%   Direction: 90°E
Pressure: 30.13"   Gusts: NA
Location:  34.0033°N, 117.446°W
Report Text: KRAL 201253Z AUTO 09003KT 5SM BR CLR 08/06 A3013 RMK AO2 SLP195 T00780061
Loading
Personal Weather Stations






























Interactive Weather Map New forecast layout! Learn more

10-Day Weather Forecast

Advertisements
Track Severe Weather on mobile